Time,TemperatureF,DewpointF,PressureIn,WindDirection,WindDirectionDegrees,WindSpeedMPH,WindSpeedGustMPH,Humidity,HourlyPrecipIn,Conditions,Clouds,dailyrainin,SoftwareType,DateUTC
2013-07-09 00:03:00,84.2,69.3,29.79,ESE,115,3.0,9.0,61,0.00,,,0.00,Wunderground v.1.15,2013-07-09 05:03:00,
2013-07-09 00:09:00,84.3,69.4,29.79,ENE,65,4.0,9.0,61,0.00,,,0.00,Wunderground v.1.15,2013-07-09 05:09:00,
2013-07-09 00:15:00,84.3,69.4,29.79,NE,35,3.0,5.0,61,0.00,,,0.00,Wunderground v.1.15,2013-07-09 05:15:00,
2013-07-09 00:21:00,84.3,68.9,29.80,NE,56,3.0,4.0,60,0.00,,,0.00,Wunderground v.1.15,2013-07-09 05:21:00,
2013-07-09 00:27:00,84.2,68.8,29.80,ENE,75,3.0,4.0,60,0.00,,,0.00,Wunderground v.1.15,2013-07-09 05:27:00,
2013-07-09 00:32:00,84.1,68.7,29.80,SSE,149,3.0,3.0,60,0.00,,,0.00,Wunderground v.1.15,2013-07-09 05:32:00,
2013-07-09 00:38:00,83.9,68.5,29.80,SSE,167,3.0,6.0,60,0.00,,,0.00,Wunderground v.1.15,2013-07-09 05:38:00,
2013-07-09 00:44:00,83.6,68.7,29.80,NE,46,2.0,4.0,61,0.00,,,0.00,Wunderground v.1.15,2013-07-09 05:44:00,
2013-07-09 00:50:00,83.4,68.5,29.80,WSW,246,2.0,3.0,61,0.00,,,0.00,Wunderground v.1.15,2013-07-09 05:50:00,
2013-07-09 00:56:00,83.2,68.3,29.80,SE,124,2.0,6.0,61,0.00,,,0.00,Wunderground v.1.15,2013-07-09 05:56:00,
2013-07-09 01:01:00,83.1,68.7,29.80,SSE,152,3.0,3.0,62,0.00,,,0.00,Wunderground v.1.15,2013-07-09 06:01:00,
2013-07-09 01:07:00,82.8,68.4,29.80,SE,138,2.0,4.0,62,0.00,,,0.00,Wunderground v.1.15,2013-07-09 06:07:00,
2013-07-09 01:13:00,82.5,68.6,29.80,ENE,66,2.0,4.0,63,0.00,,,0.00,Wunderground v.1.15,2013-07-09 06:13:00,
2013-07-09 01:19:00,82.3,68.4,29.80,ESE,110,2.0,4.0,63,0.00,,,0.00,Wunderground v.1.15,2013-07-09 06:19:00,
2013-07-09 01:24:00,81.9,68.5,29.79,SSE,153,2.0,5.0,64,0.00,,,0.00,Wunderground v.1.15,2013-07-09 06:24:00,
2013-07-09 01:29:00,81.6,68.2,29.79,NW,326,3.0,5.0,64,0.00,,,0.00,Wunderground v.1.15,2013-07-09 06:29:00,
2013-07-09 01:34:00,81.4,68.5,29.79,SE,144,3.0,3.0,65,0.00,,,0.00,Wunderground v.1.15,2013-07-09 06:34:00,
2013-07-09 01:40:00,81.2,68.3,29.79,SE,136,2.0,4.0,65,0.00,,,0.00,Wunderground v.1.15,2013-07-09 06:40:00,
2013-07-09 01:46:00,81.0,68.1,29.79,SE,139,2.0,4.0,65,0.00,,,0.00,Wunderground v.1.15,2013-07-09 06:46:00,
2013-07-09 01:52:00,80.9,68.5,29.79,SE,142,2.0,3.0,66,0.00,,,0.00,Wunderground v.1.15,2013-07-09 06:52:00,
2013-07-09 01:57:00,80.8,68.4,29.80,SE,146,2.0,3.0,66,0.00,,,0.00,Wunderground v.1.15,2013-07-09 06:57:00,
2013-07-09 02:03:00,80.7,68.3,29.80,SE,135,2.0,6.0,66,0.00,,,0.00,Wunderground v.1.15,2013-07-09 07:03:00,
2013-07-09 02:09:00,80.5,68.1,29.79,ESE,105,2.0,6.0,66,0.00,,,0.00,Wunderground v.1.15,2013-07-09 07:09:00,
2013-07-09 02:14:00,80.3,68.3,29.79,SSE,150,2.0,3.0,67,0.00,,,0.00,Wunderground v.1.15,2013-07-09 07:14:00,
2013-07-09 02:20:00,80.3,68.3,29.79,SE,131,2.0,2.0,67,0.00,,,0.00,Wunderground v.1.15,2013-07-09 07:20:00,
2013-07-09 02:26:00,80.2,68.2,29.78,SE,128,2.0,4.0,67,0.00,,,0.00,Wunderground v.1.15,2013-07-09 07:26:00,
2013-07-09 02:32:00,80.1,68.6,29.79,ESE,116,2.0,3.0,68,0.00,,,0.00,Wunderground v.1.15,2013-07-09 07:32:00,
2013-07-09 02:38:00,80.0,68.5,29.78,SSE,160,2.0,3.0,68,0.00,,,0.00,Wunderground v.1.15,2013-07-09 07:38:00,
2013-07-09 02:43:00,80.0,68.5,29.78,SE,131,2.0,5.0,68,0.00,,,0.00,Wunderground v.1.15,2013-07-09 07:43:00,
2013-07-09 02:53:00,79.8,68.7,29.79,South,177,2.0,2.0,69,0.00,,,0.00,Wunderground v.1.15,2013-07-09 07:53:00,
2013-07-09 02:59:00,78.5,69.9,29.81,SW,228,2.0,6.0,75,0.69,,,0.02,Wunderground v.1.15,2013-07-09 07:59:00,
2013-07-09 03:04:00,76.6,69.6,29.81,SW,225,2.0,2.0,79,0.13,,,0.03,Wunderground v.1.15,2013-07-09 08:04:00,
2013-07-09 03:10:00,75.4,69.9,29.80,SW,225,0.0,2.0,83,0.05,,,0.03,Wunderground v.1.15,2013-07-09 08:10:00,
2013-07-09 03:16:00,74.5,70.0,29.80,SSW,201,1.0,3.0,86,0.04,,,0.03,Wunderground v.1.15,2013-07-09 08:16:00,
2013-07-09 03:22:00,73.9,70.1,29.81,SSW,204,1.0,1.0,88,0.00,,,0.03,Wunderground v.1.15,2013-07-09 08:22:00,
2013-07-09 03:28:00,74.0,70.2,29.81,SSE,158,0.0,1.0,88,0.00,,,0.03,Wunderground v.1.15,2013-07-09 08:28:00,
2013-07-09 03:34:00,73.9,70.5,29.82,SE,132,0.0,0.0,89,0.00,,,0.03,Wunderground v.1.15,2013-07-09 08:34:00,
2013-07-09 03:40:00,74.4,70.3,29.83,SE,139,0.0,0.0,87,0.00,,,0.03,Wunderground v.1.15,2013-07-09 08:40:00,
2013-07-09 03:45:00,74.6,70.5,29.82,ESE,102,0.0,2.0,87,0.00,,,0.04,Wunderground v.1.15,2013-07-09 08:45:00,
2013-07-09 03:51:00,74.6,70.5,29.82,ESE,109,0.0,0.0,87,0.00,,,0.04,Wunderground v.1.15,2013-07-09 08:51:00,
2013-07-09 03:57:00,74.6,70.5,29.82,ENE,76,1.0,2.0,87,0.04,,,0.05,Wunderground v.1.15,2013-07-09 08:57:00,
2013-07-09 04:02:00,74.8,70.7,29.82,North,1,2.0,2.0,87,0.04,,,0.05,Wunderground v.1.15,2013-07-09 09:02:00,
2013-07-09 04:08:00,75.1,70.3,29.81,ENE,60,2.0,3.0,85,0.04,,,0.05,Wunderground v.1.15,2013-07-09 09:08:00,
2013-07-09 04:13:00,75.8,70.6,29.81,South,180,3.0,7.0,84,0.00,,,0.05,Wunderground v.1.15,2013-07-09 09:13:00,
2013-07-09 04:19:00,75.7,70.9,29.81,East,101,3.0,7.0,85,0.00,,,0.05,Wunderground v.1.15,2013-07-09 09:19:00,
2013-07-09 04:25:00,75.6,70.8,29.81,SSE,167,3.0,5.0,85,0.00,,,0.05,Wunderground v.1.15,2013-07-09 09:25:00,
2013-07-09 04:31:00,75.9,70.7,29.81,ENE,68,2.0,4.0,84,0.00,,,0.05,Wunderground v.1.15,2013-07-09 09:31:00,
2013-07-09 04:37:00,76.2,70.7,29.81,East,80,2.0,5.0,83,0.00,,,0.05,Wunderground v.1.15,2013-07-09 09:37:00,
2013-07-09 04:43:00,76.6,70.7,29.80,East,94,2.0,5.0,82,0.00,,,0.05,Wunderground v.1.15,2013-07-09 09:43:00,
2013-07-09 04:49:00,77.0,70.4,29.79,SSE,156,3.0,6.0,80,0.00,,,0.05,Wunderground v.1.15,2013-07-09 09:49:00,
2013-07-09 04:54:00,77.6,70.2,29.79,SSW,212,4.0,8.0,78,0.00,,,0.05,Wunderground v.1.15,2013-07-09 09:54:00,
2013-07-09 05:00:00,78.2,70.4,29.78,ENE,76,4.0,4.0,77,0.00,,,0.05,Wunderground v.1.15,2013-07-09 10:00:00,
2013-07-09 05:06:00,78.8,70.2,29.77,SSE,149,4.0,9.0,75,0.00,,,0.05,Wunderground v.1.15,2013-07-09 10:06:00,
2013-07-09 05:12:00,79.0,70.4,29.77,South,170,5.0,5.0,75,0.00,,,0.05,Wunderground v.1.15,2013-07-09 10:12:00,
2013-07-09 05:18:00,79.0,70.0,29.76,ESE,105,5.0,9.0,74,0.00,,,0.05,Wunderground v.1.15,2013-07-09 10:18:00,
2013-07-09 05:24:00,79.1,70.1,29.75,NE,56,6.0,11.0,74,0.00,,,0.05,Wunderground v.1.15,2013-07-09 10:24:00,
2013-07-09 05:30:00,78.5,70.3,29.75,SSE,148,6.0,6.0,76,0.00,,,0.05,Wunderground v.1.15,2013-07-09 10:30:00,
2013-07-09 05:35:00,78.5,69.9,29.75,WNW,300,6.0,8.0,75,0.00,,,0.05,Wunderground v.1.15,2013-07-09 10:35:00,
2013-07-09 05:41:00,78.7,70.1,29.76,East,84,4.0,5.0,75,0.00,,,0.05,Wunderground v.1.15,2013-07-09 10:41:00,
2013-07-09 05:47:00,78.5,69.9,29.75,ENE,66,3.0,5.0,75,0.00,,,0.05,Wunderground v.1.15,2013-07-09 10:47:00,
2013-07-09 05:53:00,78.5,70.3,29.75,SSE,158,3.0,5.0,76,0.00,,,0.05,Wunderground v.1.15,2013-07-09 10:53:00,
2013-07-09 05:58:00,78.3,70.1,29.74,SSW,205,3.0,7.0,76,0.00,,,0.05,Wunderground v.1.15,2013-07-09 10:58:00,
2013-07-09 06:04:00,78.4,70.2,29.75,SSE,147,3.0,6.0,76,0.00,,,0.05,Wunderground v.1.15,2013-07-09 11:04:00,
2013-07-09 06:10:00,78.3,70.5,29.77,East,80,3.0,3.0,77,0.00,,,0.05,Wunderground v.1.15,2013-07-09 11:10:00,
2013-07-09 06:15:00,78.1,70.3,29.78,SSE,148,2.0,7.0,77,0.00,,,0.05,Wunderground v.1.15,2013-07-09 11:15:00,
2013-07-09 06:21:00,77.7,70.3,29.78,NW,318,1.0,2.0,78,0.00,,,0.05,Wunderground v.1.15,2013-07-09 11:21:00,
2013-07-09 06:27:00,77.5,70.5,29.79,SSW,198,1.0,3.0,79,0.00,,,0.05,Wunderground v.1.15,2013-07-09 11:27:00,
2013-07-09 06:33:00,77.6,70.6,29.79,NNW,334,2.0,2.0,79,0.00,,,0.05,Wunderground v.1.15,2013-07-09 11:33:00,
2013-07-09 06:39:00,77.5,70.5,29.79,South,183,2.0,3.0,79,0.00,,,0.05,Wunderground v.1.15,2013-07-09 11:39:00,
2013-07-09 06:45:00,77.6,70.6,29.80,West,278,2.0,5.0,79,0.00,,,0.05,Wunderground v.1.15,2013-07-09 11:45:00,
2013-07-09 06:51:00,77.5,70.8,29.80,West,280,2.0,2.0,80,0.00,,,0.05,Wunderground v.1.15,2013-07-09 11:51:00,
2013-07-09 06:56:00,77.3,70.6,29.80,West,261,2.0,2.0,80,0.00,,,0.05,Wunderground v.1.15,2013-07-09 11:56:00,
2013-07-09 07:02:00,77.2,70.9,29.79,SSW,201,1.0,1.0,81,0.00,,,0.05,Wunderground v.1.15,2013-07-09 12:02:00,
2013-07-09 07:08:00,77.2,71.3,29.79,South,181,1.0,5.0,82,0.00,,,0.05,Wunderground v.1.15,2013-07-09 12:08:00,
2013-07-09 07:14:00,77.1,71.2,29.79,West,281,2.0,2.0,82,0.00,,,0.06,Wunderground v.1.15,2013-07-09 12:14:00,
2013-07-09 07:20:00,76.7,71.1,29.80,SSE,162,1.0,2.0,83,0.00,,,0.06,Wunderground v.1.15,2013-07-09 12:20:00,
2013-07-09 07:26:00,76.4,71.2,29.80,ENE,75,0.0,2.0,84,0.00,,,0.06,Wunderground v.1.15,2013-07-09 12:26:00,
2013-07-09 07:32:00,76.2,71.4,29.81,NNW,342,0.0,1.0,85,0.00,,,0.06,Wunderground v.1.15,2013-07-09 12:32:00,
2013-07-09 07:37:00,75.9,71.4,29.81,NNW,343,0.0,1.0,86,0.00,,,0.06,Wunderground v.1.15,2013-07-09 12:37:00,
2013-07-09 07:43:00,75.5,71.4,29.79,ESE,114,1.0,3.0,87,0.21,,,0.08,Wunderground v.1.15,2013-07-09 12:43:00,
2013-07-09 07:49:00,75.0,71.2,29.79,SSE,167,1.0,3.0,88,0.07,,,0.08,Wunderground v.1.15,2013-07-09 12:49:00,
2013-07-09 07:55:00,74.9,71.1,29.78,SE,134,1.0,2.0,88,0.04,,,0.08,Wunderground v.1.15,2013-07-09 12:55:00,
2013-07-09 08:01:00,74.8,71.0,29.78,WSW,248,2.0,3.0,88,0.19,,,0.10,Wunderground v.1.15,2013-07-09 13:01:00,
2013-07-09 08:06:00,74.9,70.8,29.77,SSW,203,3.0,7.0,87,0.16,,,0.12,Wunderground v.1.15,2013-07-09 13:06:00,
2013-07-09 08:12:00,75.1,71.0,29.77,SW,224,4.0,6.0,87,0.06,,,0.12,Wunderground v.1.15,2013-07-09 13:12:00,
2013-07-09 08:18:00,75.5,70.7,29.77,SW,223,3.0,6.0,85,0.04,,,0.12,Wunderground v.1.15,2013-07-09 13:18:00,
2013-07-09 08:24:00,76.1,70.9,29.78,SE,128,3.0,3.0,84,0.00,,,0.12,Wunderground v.1.15,2013-07-09 13:24:00,
2013-07-09 08:30:00,76.4,71.2,29.78,ESE,104,2.0,2.0,84,0.00,,,0.12,Wunderground v.1.15,2013-07-09 13:30:00,
2013-07-09 08:36:00,76.8,71.2,29.78,SE,128,2.0,5.0,83,0.00,,,0.12,Wunderground v.1.15,2013-07-09 13:36:00,
2013-07-09 08:41:00,77.1,71.2,29.79,NNE,13,2.0,3.0,82,0.00,,,0.12,Wunderground v.1.15,2013-07-09 13:41:00,
2013-07-09 08:47:00,77.6,71.7,29.79,NE,38,1.0,3.0,82,0.00,,,0.12,Wunderground v.1.15,2013-07-09 13:47:00,
2013-07-09 08:52:00,78.0,72.1,29.80,NNE,15,1.0,1.0,82,0.00,,,0.12,Wunderground v.1.15,2013-07-09 13:52:00,
2013-07-09 08:58:00,78.5,72.5,29.80,NNW,347,0.0,1.0,82,0.00,,,0.12,Wunderground v.1.15,2013-07-09 13:58:00,
2013-07-09 09:04:00,78.9,72.2,29.80,ESE,107,0.0,2.0,80,0.00,,,0.12,Wunderground v.1.15,2013-07-09 14:04:00,
2013-07-09 09:10:00,79.1,73.1,29.81,ENE,70,0.0,0.0,82,0.00,,,0.12,Wunderground v.1.15,2013-07-09 14:10:00,
2013-07-09 09:16:00,79.1,73.5,29.81,ENE,68,0.0,0.0,83,0.00,,,0.12,Wunderground v.1.15,2013-07-09 14:16:00,
2013-07-09 09:21:00,79.2,73.9,29.81,ENE,66,0.0,0.0,84,0.00,,,0.12,Wunderground v.1.15,2013-07-09 14:21:00,
2013-07-09 09:27:00,79.2,73.6,29.80,West,270,0.0,1.0,83,0.00,,,0.12,Wunderground v.1.15,2013-07-09 14:27:00,
2013-07-09 09:32:00,79.3,73.7,29.81,North,4,0.0,0.0,83,0.00,,,0.12,Wunderground v.1.15,2013-07-09 14:32:00,
2013-07-09 09:38:00,79.3,73.3,29.81,North,6,0.0,1.0,82,0.00,,,0.12,Wunderground v.1.15,2013-07-09 14:38:00,
2013-07-09 09:44:00,79.9,74.6,29.81,NNW,339,1.0,2.0,84,0.00,,,0.12,Wunderground v.1.15,2013-07-09 14:44:00,
2013-07-09 09:50:00,80.8,75.2,29.81,NE,41,1.0,1.0,83,0.00,,,0.12,Wunderground v.1.15,2013-07-09 14:50:00,
2013-07-09 09:56:00,81.9,75.1,29.82,NNE,12,1.0,1.0,80,0.00,,,0.12,Wunderground v.1.15,2013-07-09 14:56:00,
2013-07-09 10:01:00,82.6,75.8,29.82,ENE,65,1.0,1.0,80,0.00,,,0.12,Wunderground v.1.15,2013-07-09 15:01:00,
2013-07-09 10:07:00,83.4,74.6,29.81,South,188,0.0,2.0,75,0.00,,,0.12,Wunderground v.1.15,2013-07-09 15:07:00,
2013-07-09 10:13:00,84.1,75.7,29.81,SSE,158,0.0,1.0,76,0.00,,,0.12,Wunderground v.1.15,2013-07-09 15:13:00,
2013-07-09 10:18:00,84.6,74.6,29.81,SE,146,1.0,2.0,72,0.00,,,0.12,Wunderground v.1.15,2013-07-09 15:18:00,
2013-07-09 10:24:00,84.9,74.0,29.81,WNW,302,1.0,3.0,70,0.00,,,0.12,Wunderground v.1.15,2013-07-09 15:24:00,
2013-07-09 10:30:00,85.1,73.8,29.81,SSE,156,2.0,2.0,69,0.00,,,0.12,Wunderground v.1.15,2013-07-09 15:30:00,
2013-07-09 10:36:00,85.1,74.6,29.80,West,262,1.0,4.0,71,0.00,,,0.12,Wunderground v.1.15,2013-07-09 15:36:00,
2013-07-09 10:42:00,85.1,73.3,29.81,SE,146,2.0,2.0,68,0.00,,,0.12,Wunderground v.1.15,2013-07-09 15:42:00,
2013-07-09 10:48:00,85.5,74.6,29.80,WSW,248,2.0,3.0,70,0.00,,,0.12,Wunderground v.1.15,2013-07-09 15:48:00,
2013-07-09 10:53:00,85.7,74.8,29.80,SW,226,2.0,3.0,70,0.00,,,0.12,Wunderground v.1.15,2013-07-09 15:53:00,
2013-07-09 10:59:00,85.6,75.1,29.80,West,281,3.0,7.0,71,0.00,,,0.12,Wunderground v.1.15,2013-07-09 15:59:00,
2013-07-09 11:05:00,85.5,74.2,29.80,NNW,333,3.0,4.0,69,0.00,,,0.12,Wunderground v.1.15,2013-07-09 16:05:00,
2013-07-09 11:11:00,85.7,74.8,29.80,West,271,2.0,3.0,70,0.00,,,0.12,Wunderground v.1.15,2013-07-09 16:11:00,
2013-07-09 11:16:00,85.8,74.9,29.80,WSW,248,3.0,5.0,70,0.00,,,0.12,Wunderground v.1.15,2013-07-09 16:16:00,
2013-07-09 11:22:00,86.1,74.7,29.80,SE,137,2.0,2.0,69,0.00,,,0.12,Wunderground v.1.15,2013-07-09 16:22:00,
2013-07-09 11:28:00,86.5,76.8,29.80,WNW,297,2.0,3.0,73,0.00,,,0.12,Wunderground v.1.15,2013-07-09 16:28:00,
2013-07-09 11:34:00,86.9,76.4,29.80,SE,146,2.0,3.0,71,0.00,,,0.12,Wunderground v.1.15,2013-07-09 16:34:00,
2013-07-09 11:39:00,87.0,75.6,29.80,West,274,2.0,3.0,69,0.00,,,0.12,Wunderground v.1.15,2013-07-09 16:39:00,
2013-07-09 11:45:00,87.2,76.2,29.80,West,274,2.0,2.0,70,0.00,,,0.12,Wunderground v.1.15,2013-07-09 16:45:00,
2013-07-09 11:51:00,87.5,75.6,29.80,South,183,2.0,2.0,68,0.00,,,0.12,Wunderground v.1.15,2013-07-09 16:51:00,
2013-07-09 11:57:00,87.3,75.4,29.80,SW,231,2.0,6.0,68,0.00,,,0.12,Wunderground v.1.15,2013-07-09 16:57:00,
2013-07-09 12:02:00,87.1,75.7,29.80,WNW,290,3.0,4.0,69,0.00,,,0.12,Wunderground v.1.15,2013-07-09 17:02:00,
2013-07-09 12:08:00,87.0,76.0,29.80,SE,143,2.0,4.0,70,0.00,,,0.12,Wunderground v.1.15,2013-07-09 17:08:00,
2013-07-09 12:14:00,87.6,76.2,29.79,SW,232,2.0,3.0,69,0.00,,,0.12,Wunderground v.1.15,2013-07-09 17:14:00,
2013-07-09 12:20:00,87.7,75.8,29.79,West,260,2.0,2.0,68,0.00,,,0.12,Wunderground v.1.15,2013-07-09 17:20:00,
2013-07-09 12:26:00,88.0,77.0,29.79,SSW,201,2.0,5.0,70,0.00,,,0.12,Wunderground v.1.15,2013-07-09 17:26:00,
2013-07-09 12:31:00,88.1,75.8,29.79,SSW,201,2.0,2.0,67,0.00,,,0.12,Wunderground v.1.15,2013-07-09 17:31:00,
2013-07-09 12:37:00,88.4,76.5,29.79,NW,323,2.0,3.0,68,0.00,,,0.12,Wunderground v.1.15,2013-07-09 17:37:00,
2013-07-09 12:43:00,88.6,76.7,29.78,West,270,2.0,3.0,68,0.00,,,0.12,Wunderground v.1.15,2013-07-09 17:43:00,
2013-07-09 12:49:00,88.4,76.5,29.79,SSW,201,2.0,3.0,68,0.00,,,0.12,Wunderground v.1.15,2013-07-09 17:49:00,
2013-07-09 12:54:00,88.8,77.7,29.78,NE,48,2.0,3.0,70,0.00,,,0.12,Wunderground v.1.15,2013-07-09 17:54:00,
2013-07-09 12:59:00,89.0,77.1,29.78,NW,321,2.0,7.0,68,0.00,,,0.12,Wunderground v.1.15,2013-07-09 17:59:00,
2013-07-09 13:05:00,89.1,78.0,29.78,WNW,287,3.0,4.0,70,0.00,,,0.12,Wunderground v.1.15,2013-07-09 18:05:00,
2013-07-09 13:11:00,89.4,77.0,29.77,WNW,284,2.0,5.0,67,0.00,,,0.12,Wunderground v.1.15,2013-07-09 18:11:00,
2013-07-09 13:17:00,89.5,77.5,29.77,WSW,257,2.0,5.0,68,0.00,,,0.12,Wunderground v.1.15,2013-07-09 18:17:00,
2013-07-09 13:22:00,89.8,77.8,29.77,NNW,337,2.0,2.0,68,0.00,,,0.12,Wunderground v.1.15,2013-07-09 18:22:00,
2013-07-09 13:27:00,90.2,77.8,29.77,South,190,2.0,4.0,67,0.00,,,0.12,Wunderground v.1.15,2013-07-09 18:27:00,
2013-07-09 13:33:00,90.6,78.6,29.77,South,172,2.0,3.0,68,0.00,,,0.12,Wunderground v.1.15,2013-07-09 18:33:00,
2013-07-09 13:39:00,90.4,77.0,29.77,West,275,2.0,5.0,65,0.00,,,0.12,Wunderground v.1.15,2013-07-09 18:39:00,
2013-07-09 13:45:00,90.5,78.9,29.77,SW,228,2.0,3.0,69,0.00,,,0.12,Wunderground v.1.15,2013-07-09 18:45:00,
2013-07-09 13:51:00,90.9,78.4,29.77,North,8,2.0,2.0,67,0.00,,,0.12,Wunderground v.1.15,2013-07-09 18:51:00,
2013-07-09 13:57:00,91.1,78.2,29.76,South,185,2.0,2.0,66,0.00,,,0.12,Wunderground v.1.15,2013-07-09 18:57:00,
2013-07-09 14:02:00,91.4,79.3,29.76,NNW,343,2.0,3.0,68,0.00,,,0.12,Wunderground v.1.15,2013-07-09 19:02:00,
2013-07-09 14:08:00,91.6,80.0,29.76,NE,40,2.0,3.0,69,0.00,,,0.12,Wunderground v.1.15,2013-07-09 19:08:00,
2013-07-09 14:13:00,91.9,79.4,29.76,SE,125,1.0,2.0,67,0.00,,,0.12,Wunderground v.1.15,2013-07-09 19:13:00,
2013-07-09 14:19:00,92.3,79.8,29.76,South,169,2.0,2.0,67,0.00,,,0.12,Wunderground v.1.15,2013-07-09 19:19:00,
2013-07-09 14:24:00,92.5,79.5,29.76,North,352,2.0,2.0,66,0.00,,,0.12,Wunderground v.1.15,2013-07-09 19:24:00,
2013-07-09 14:30:00,92.6,78.2,29.76,South,170,2.0,2.0,63,0.00,,,0.12,Wunderground v.1.15,2013-07-09 19:30:00,
2013-07-09 14:36:00,92.8,78.8,29.76,WNW,295,2.0,3.0,64,0.00,,,0.12,Wunderground v.1.15,2013-07-09 19:36:00,
2013-07-09 14:41:00,92.7,78.7,29.76,NNW,333,2.0,2.0,64,0.00,,,0.12,Wunderground v.1.15,2013-07-09 19:41:00,
2013-07-09 14:47:00,93.1,78.6,29.76,NNW,344,2.0,3.0,63,0.00,,,0.12,Wunderground v.1.15,2013-07-09 19:47:00,
2013-07-09 14:53:00,93.2,78.7,29.76,South,191,1.0,1.0,63,0.00,,,0.12,Wunderground v.1.15,2013-07-09 19:53:00,
2013-07-09 14:59:00,93.3,77.8,29.76,SW,236,2.0,6.0,61,0.00,,,0.12,Wunderground v.1.15,2013-07-09 19:59:00,
2013-07-09 15:05:00,93.3,78.3,29.76,ESE,102,2.0,3.0,62,0.00,,,0.12,Wunderground v.1.15,2013-07-09 20:05:00,
2013-07-09 15:11:00,93.7,80.2,29.76,SSE,159,2.0,2.0,65,0.00,,,0.12,Wunderground v.1.15,2013-07-09 20:11:00,
2013-07-09 15:16:00,93.8,80.2,29.76,WNW,287,2.0,4.0,65,0.00,,,0.12,Wunderground v.1.15,2013-07-09 20:16:00,
2013-07-09 15:22:00,94.0,79.0,29.76,SSW,193,1.0,3.0,62,0.00,,,0.12,Wunderground v.1.15,2013-07-09 20:22:00,
2013-07-09 15:28:00,94.0,78.0,29.76,South,173,1.0,3.0,60,0.00,,,0.12,Wunderground v.1.15,2013-07-09 20:28:00,
2013-07-09 15:34:00,94.3,80.2,29.76,SE,125,2.0,5.0,64,0.00,,,0.12,Wunderground v.1.15,2013-07-09 20:34:00,
2013-07-09 15:40:00,94.4,77.9,29.76,South,186,1.0,1.0,59,0.00,,,0.12,Wunderground v.1.15,2013-07-09 20:40:00,
2013-07-09 15:46:00,94.8,79.2,29.76,SE,143,1.0,2.0,61,0.00,,,0.12,Wunderground v.1.15,2013-07-09 20:46:00,
2013-07-09 15:52:00,94.7,78.7,29.76,South,181,2.0,3.0,60,0.00,,,0.12,Wunderground v.1.15,2013-07-09 20:52:00,
2013-07-09 15:58:00,94.7,78.7,29.76,SE,145,2.0,3.0,60,0.00,,,0.12,Wunderground v.1.15,2013-07-09 20:58:00,
2013-07-09 16:04:00,95.2,79.6,29.76,North,350,1.0,2.0,61,0.00,,,0.12,Wunderground v.1.15,2013-07-09 21:04:00,
2013-07-09 16:10:00,95.0,78.9,29.76,SSW,198,1.0,2.0,60,0.00,,,0.12,Wunderground v.1.15,2013-07-09 21:10:00,
2013-07-09 16:15:00,95.0,78.9,29.76,West,260,1.0,2.0,60,0.00,,,0.12,Wunderground v.1.15,2013-07-09 21:15:00,
2013-07-09 16:21:00,95.3,79.2,29.76,SSW,208,1.0,1.0,60,0.00,,,0.12,Wunderground v.1.15,2013-07-09 21:21:00,
2013-07-09 16:26:00,95.6,79.0,29.76,East,90,1.0,2.0,59,0.00,,,0.12,Wunderground v.1.15,2013-07-09 21:26:00,
2013-07-09 16:32:00,96.0,79.9,29.76,NNE,30,1.0,1.0,60,0.00,,,0.12,Wunderground v.1.15,2013-07-09 21:32:00,
2013-07-09 16:38:00,96.0,78.8,29.76,South,187,1.0,2.0,58,0.00,,,0.12,Wunderground v.1.15,2013-07-09 21:38:00,
2013-07-09 16:44:00,96.4,79.2,29.76,NNE,16,1.0,1.0,58,0.00,,,0.12,Wunderground v.1.15,2013-07-09 21:44:00,
2013-07-09 16:50:00,96.5,80.8,29.76,North,5,1.0,1.0,61,0.00,,,0.12,Wunderground v.1.15,2013-07-09 21:50:00,
2013-07-09 16:56:00,96.6,79.9,29.76,WSW,252,1.0,3.0,59,0.00,,,0.12,Wunderground v.1.15,2013-07-09 21:56:00,
2013-07-09 17:02:00,96.3,80.7,29.75,North,4,1.0,1.0,61,0.00,,,0.12,Wunderground v.1.15,2013-07-09 22:02:00,
2013-07-09 17:08:00,96.7,77.9,29.75,SSE,160,1.0,3.0,55,0.00,,,0.12,Wunderground v.1.15,2013-07-09 22:08:00,
2013-07-09 17:14:00,96.9,76.9,29.75,SSW,211,1.0,2.0,53,0.00,,,0.12,Wunderground v.1.15,2013-07-09 22:14:00,
2013-07-09 17:19:00,97.7,78.2,29.75,ENE,68,0.0,2.0,54,0.00,,,0.12,Wunderground v.1.15,2013-07-09 22:19:00,
2013-07-09 17:25:00,97.2,78.9,29.75,ENE,68,0.0,1.0,56,0.00,,,0.12,Wunderground v.1.15,2013-07-09 22:25:00,
2013-07-09 17:31:00,96.6,78.3,29.75,NNW,336,1.0,2.0,56,0.00,,,0.12,Wunderground v.1.15,2013-07-09 22:31:00,
2013-07-09 17:37:00,95.8,77.6,29.74,NE,38,1.0,2.0,56,0.00,,,0.12,Wunderground v.1.15,2013-07-09 22:37:00,
2013-07-09 17:42:00,96.8,77.4,29.74,ENE,67,0.0,1.0,54,0.00,,,0.12,Wunderground v.1.15,2013-07-09 22:42:00,
2013-07-09 17:46:00,97.1,78.2,29.74,ENE,58,0.0,1.0,55,0.00,,,0.12,Wunderground v.1.15,2013-07-09 22:46:00,
2013-07-09 17:52:00,96.5,76.0,29.74,South,190,1.0,1.0,52,0.00,,,0.12,Wunderground v.1.15,2013-07-09 22:52:00,
2013-07-09 17:57:00,96.3,76.4,29.74,NE,47,1.0,1.0,53,0.00,,,0.12,Wunderground v.1.15,2013-07-09 22:57:00,
2013-07-09 18:03:00,96.8,77.4,29.74,NE,49,0.0,1.0,54,0.00,,,0.12,Wunderground v.1.15,2013-07-09 23:03:00,
2013-07-09 18:09:00,96.8,76.8,29.74,NE,51,0.0,1.0,53,0.00,,,0.12,Wunderground v.1.15,2013-07-09 23:09:00,
2013-07-09 18:15:00,96.3,77.5,29.74,ENE,63,1.0,2.0,55,0.00,,,0.12,Wunderground v.1.15,2013-07-09 23:15:00,
2013-07-09 18:20:00,95.5,77.8,29.74,ENE,64,1.0,2.0,57,0.00,,,0.12,Wunderground v.1.15,2013-07-09 23:20:00,
2013-07-09 18:26:00,94.5,76.4,29.74,NE,53,1.0,3.0,56,0.00,,,0.12,Wunderground v.1.15,2013-07-09 23:26:00,
2013-07-09 18:32:00,94.1,77.6,29.74,ENE,60,1.0,2.0,59,0.00,,,0.12,Wunderground v.1.15,2013-07-09 23:32:00,
2013-07-09 18:38:00,93.7,77.2,29.74,ENE,58,1.0,2.0,59,0.00,,,0.12,Wunderground v.1.15,2013-07-09 23:38:00,
2013-07-09 18:43:00,93.4,76.9,29.74,ENE,60,1.0,1.0,59,0.00,,,0.12,Wunderground v.1.15,2013-07-09 23:43:00,
2013-07-09 18:49:00,93.3,77.8,29.74,ENE,61,1.0,2.0,61,0.00,,,0.12,Wunderground v.1.15,2013-07-09 23:49:00,
2013-07-09 18:55:00,93.3,78.8,29.74,NE,49,1.0,1.0,63,0.00,,,0.12,Wunderground v.1.15,2013-07-09 23:55:00,
2013-07-09 19:00:00,93.4,78.4,29.74,NE,48,0.0,1.0,62,0.00,,,0.12,Wunderground v.1.15,2013-07-10 00:00:00,
2013-07-09 19:06:00,93.1,77.7,29.74,NE,53,0.0,1.0,61,0.00,,,0.12,Wunderground v.1.15,2013-07-10 00:06:00,
2013-07-09 19:12:00,92.8,77.4,29.74,NE,56,1.0,1.0,61,0.00,,,0.12,Wunderground v.1.15,2013-07-10 00:12:00,
2013-07-09 19:18:00,92.7,77.8,29.74,NE,51,1.0,2.0,62,0.00,,,0.12,Wunderground v.1.15,2013-07-10 00:18:00,
2013-07-09 19:23:00,92.3,77.4,29.74,ENE,59,1.0,2.0,62,0.00,,,0.12,Wunderground v.1.15,2013-07-10 00:23:00,
2013-07-09 19:29:00,92.0,78.1,29.75,NE,55,2.0,2.0,64,0.00,,,0.12,Wunderground v.1.15,2013-07-10 00:29:00,
2013-07-09 19:34:00,91.9,78.4,29.75,NE,53,1.0,2.0,65,0.00,,,0.12,Wunderground v.1.15,2013-07-10 00:34:00,
2013-07-09 19:40:00,91.5,77.6,29.75,ENE,58,1.0,2.0,64,0.00,,,0.12,Wunderground v.1.15,2013-07-10 00:40:00,
2013-07-09 19:46:00,91.0,78.5,29.75,ENE,61,2.0,2.0,67,0.00,,,0.12,Wunderground v.1.15,2013-07-10 00:46:00,
2013-07-09 19:51:00,90.3,78.3,29.75,ENE,60,1.0,2.0,68,0.00,,,0.12,Wunderground v.1.15,2013-07-10 00:51:00,
2013-07-09 19:57:00,89.2,78.1,29.75,ENE,61,2.0,2.0,70,0.00,,,0.12,Wunderground v.1.15,2013-07-10 00:57:00,
2013-07-09 20:03:00,88.1,78.3,29.75,ENE,62,2.0,2.0,73,0.00,,,0.12,Wunderground v.1.15,2013-07-10 01:03:00,
2013-07-09 20:08:00,87.3,78.0,29.75,ENE,61,2.0,2.0,74,0.00,,,0.12,Wunderground v.1.15,2013-07-10 01:08:00,
2013-07-09 20:14:00,86.7,77.8,29.75,ENE,69,2.0,3.0,75,0.00,,,0.12,Wunderground v.1.15,2013-07-10 01:14:00,
2013-07-09 20:20:00,86.4,77.5,29.74,ENE,63,2.0,2.0,75,0.00,,,0.12,Wunderground v.1.15,2013-07-10 01:20:00,
2013-07-09 20:26:00,86.1,77.2,29.74,ENE,69,2.0,3.0,75,0.00,,,0.12,Wunderground v.1.15,2013-07-10 01:26:00,
2013-07-09 20:31:00,85.8,77.0,29.74,ENE,66,2.0,3.0,75,0.00,,,0.12,Wunderground v.1.15,2013-07-10 01:31:00,
2013-07-09 20:37:00,85.5,76.7,29.75,ENE,68,2.0,3.0,75,0.00,,,0.12,Wunderground v.1.15,2013-07-10 01:37:00,
2013-07-09 20:43:00,85.3,76.5,29.75,ENE,76,2.0,3.0,75,0.00,,,0.12,Wunderground v.1.15,2013-07-10 01:43:00,
2013-07-09 20:49:00,85.1,76.3,29.75,ENE,74,2.0,3.0,75,0.00,,,0.12,Wunderground v.1.15,2013-07-10 01:49:00,
2013-07-09 20:54:00,85.0,76.2,29.76,ENE,68,2.0,4.0,75,0.00,,,0.12,Wunderground v.1.15,2013-07-10 01:54:00,
2013-07-09 21:01:00,84.7,76.3,29.75,ENE,58,2.0,2.0,76,0.00,,,0.12,Wunderground v.1.15,2013-07-10 02:01:00,
2013-07-09 21:06:00,84.5,76.1,29.75,ENE,65,2.0,2.0,76,0.00,,,0.12,Wunderground v.1.15,2013-07-10 02:06:00,
2013-07-09 21:12:00,84.3,76.3,29.76,NE,56,1.0,2.0,77,0.00,,,0.12,Wunderground v.1.15,2013-07-10 02:12:00,
2013-07-09 21:17:00,84.2,76.2,29.76,ENE,68,2.0,2.0,77,0.00,,,0.12,Wunderground v.1.15,2013-07-10 02:17:00,
2013-07-09 21:23:00,83.9,76.3,29.76,ENE,59,2.0,3.0,78,0.00,,,0.12,Wunderground v.1.15,2013-07-10 02:23:00,
2013-07-09 21:29:00,83.8,75.8,29.76,ENE,60,2.0,3.0,77,0.00,,,0.12,Wunderground v.1.15,2013-07-10 02:29:00,
2013-07-09 21:35:00,84.0,75.6,29.76,ENE,66,3.0,3.0,76,0.00,,,0.12,Wunderground v.1.15,2013-07-10 02:35:00,
2013-07-09 21:41:00,84.0,75.6,29.76,ENE,71,3.0,4.0,76,0.00,,,0.12,Wunderground v.1.15,2013-07-10 02:41:00,
2013-07-09 21:47:00,84.1,75.7,29.76,NE,56,2.0,4.0,76,0.00,,,0.12,Wunderground v.1.15,2013-07-10 02:47:00,
2013-07-09 21:52:00,84.1,75.3,29.76,ENE,67,2.0,2.0,75,0.00,,,0.12,Wunderground v.1.15,2013-07-10 02:52:00,
2013-07-09 21:58:00,84.0,75.2,29.76,NE,56,2.0,2.0,75,0.00,,,0.12,Wunderground v.1.15,2013-07-10 02:58:00,
2013-07-09 22:04:00,83.8,75.4,29.76,NE,46,2.0,2.0,76,0.00,,,0.12,Wunderground v.1.15,2013-07-10 03:04:00,
2013-07-09 22:10:00,83.5,75.1,29.76,NE,56,1.0,1.0,76,0.00,,,0.12,Wunderground v.1.15,2013-07-10 03:10:00,
2013-07-09 22:15:00,83.3,75.3,29.76,ENE,61,1.0,2.0,77,0.00,,,0.12,Wunderground v.1.15,2013-07-10 03:15:00,
2013-07-09 22:21:00,83.1,75.1,29.77,ENE,75,1.0,3.0,77,0.00,,,0.12,Wunderground v.1.15,2013-07-10 03:21:00,
2013-07-09 22:27:00,82.8,75.2,29.77,East,83,1.0,3.0,78,0.00,,,0.12,Wunderground v.1.15,2013-07-10 03:27:00,
2013-07-09 22:32:00,82.2,75.0,29.77,ESE,114,0.0,0.0,79,0.00,,,0.12,Wunderground v.1.15,2013-07-10 03:32:00,
2013-07-09 22:38:00,81.7,75.3,29.77,ENE,75,0.0,0.0,81,0.00,,,0.12,Wunderground v.1.15,2013-07-10 03:38:00,
2013-07-09 22:44:00,81.5,75.1,29.77,ENE,63,0.0,1.0,81,0.00,,,0.12,Wunderground v.1.15,2013-07-10 03:44:00,
2013-07-09 22:50:00,81.7,75.3,29.78,ENE,65,1.0,3.0,81,0.00,,,0.12,Wunderground v.1.15,2013-07-10 03:50:00,
2013-07-09 22:56:00,82.0,75.6,29.78,NNE,31,2.0,6.0,81,0.00,,,0.12,Wunderground v.1.15,2013-07-10 03:56:00,
2013-07-09 23:01:00,82.0,75.6,29.79,NE,53,1.0,1.0,81,0.00,,,0.12,Wunderground v.1.15,2013-07-10 04:01:00,
2013-07-09 23:02:00,82.0,75.6,29.79,NNE,30,1.0,7.0,81,0.00,,,0.12,Wunderground v.1.15,2013-07-10 04:02:00,
2013-07-09 23:03:00,82.0,75.6,29.79,ENE,58,1.0,7.0,81,0.00,,,0.12,Wunderground v.1.15,2013-07-10 04:03:00,
2013-07-09 23:04:00,81.9,75.1,29.79,East,86,1.0,7.0,80,0.00,,,0.12,Wunderground v.1.15,2013-07-10 04:04:00,
2013-07-09 23:06:00,81.9,75.1,29.79,ENE,64,2.0,7.0,80,0.00,,,0.12,Wunderground v.1.15,2013-07-10 04:06:00,
2013-07-09 23:11:00,82.1,74.9,29.79,ENE,58,3.0,3.0,79,0.00,,,0.12,Wunderground v.1.15,2013-07-10 04:11:00,
2013-07-09 23:17:00,82.1,74.6,29.80,ENE,58,3.0,5.0,78,0.00,,,0.12,Wunderground v.1.15,2013-07-10 04:17:00,
2013-07-09 23:23:00,82.0,74.1,29.80,ENE,72,3.0,4.0,77,0.00,,,0.12,Wunderground v.1.15,2013-07-10 04:23:00,
2013-07-09 23:29:00,82.1,74.2,29.80,ENE,74,3.0,6.0,77,0.00,,,0.12,Wunderground v.1.15,2013-07-10 04:29:00,
2013-07-09 23:35:00,82.0,74.1,29.81,NE,52,3.0,4.0,77,0.00,,,0.12,Wunderground v.1.15,2013-07-10 04:35:00,
2013-07-09 23:41:00,81.9,74.0,29.80,NE,51,2.0,2.0,77,0.00,,,0.12,Wunderground v.1.15,2013-07-10 04:41:00,
2013-07-09 23:46:00,81.6,73.7,29.81,NNE,12,2.0,5.0,77,0.00,,,0.12,Wunderground v.1.15,2013-07-10 04:46:00,
2013-07-09 23:52:00,81.2,73.7,29.81,NE,49,1.0,2.0,78,0.00,,,0.12,Wunderground v.1.15,2013-07-10 04:52:00,
2013-07-09 23:58:00,80.9,73.4,29.81,ENE,58,0.0,2.0,78,0.00,,,0.00,Wunderground v.1.15,2013-07-10 04:58:00,